Weather at Stornoway Airport

Public forecast

Using degrees Celsius for public forecast. Weather courtesy of forecast.io.

Current aviation weather report (METAR) for Stornoway Airport

2024/05/21 14:20 (retrieved 25 minutes ago)

EGPO 211420Z 05006KT 9999 FEW030 17/11 Q1011

Closest aviation forecast (TAF) to Stornoway Airport

Closest forecast is RAF Lossiemouth, 100.1 nm (185.4 km) ESE.

2024/05/21 15:54 (retrieved 0 seconds ago)

TAF EGQS 211347Z 2115/2209 06014KT 9999 FEW048 PROB40 TEMPO 2115/2119 5000 SHRA SCT030CB PROB30 TEMPO 2115/2118 12015G25KT 3000 +TSGS +SHRA BKN020CB PROB30 2122/2209 2000 BR SCT004